createdAt,value
2018-03-02T00:00:00.120Z,-9.69
2018-03-02T00:01:00.125Z,-9.59
2018-03-02T00:02:00.127Z,-9.62
2018-03-02T00:03:00.136Z,-9.69
2018-03-02T00:04:00.144Z,-9.65
2018-03-02T00:05:14.662Z,-9.68
2018-03-02T00:06:00.160Z,-9.69
2018-03-02T00:07:00.179Z,-9.62
2018-03-02T00:08:00.184Z,-9.69
2018-03-02T00:09:00.185Z,-9.76
2018-03-02T00:11:00.202Z,-9.83
2018-03-02T00:12:00.206Z,-9.83
2018-03-02T00:13:00.214Z,-9.74
2018-03-02T00:14:00.219Z,-9.63
2018-03-02T00:14:59.973Z,-9.65
2018-03-02T00:16:00.238Z,-9.72
2018-03-02T00:16:59.991Z,-9.81
2018-03-02T00:18:00.252Z,-9.8
2018-03-02T00:19:00.270Z,-9.79
2018-03-02T00:20:00.265Z,-9.69
2018-03-02T00:21:14.938Z,-9.76
2018-03-02T00:22:14.691Z,-9.74
2018-03-02T00:23:00.345Z,-9.81
2018-03-02T00:24:00.045Z,-9.8
2018-03-02T00:26:00.064Z,-9.79
2018-03-02T00:27:00.062Z,-9.92
2018-03-02T00:28:00.335Z,-9.94
2018-03-02T00:29:00.379Z,-9.9
2018-03-02T00:30:00.087Z,-9.9
2018-03-02T00:31:00.095Z,-9.9
2018-03-02T00:32:00.102Z,-9.84
2018-03-02T00:33:00.119Z,-9.89
2018-03-02T00:34:15.040Z,-9.84
2018-03-02T00:35:00.378Z,-9.89
2018-03-02T00:36:00.176Z,-9.84
2018-03-02T00:37:15.058Z,-9.89
2018-03-02T00:38:00.399Z,-9.83
2018-03-02T00:39:00.416Z,-9.87
2018-03-02T00:40:00.421Z,-9.92
2018-03-02T00:41:00.425Z,-9.86
2018-03-02T00:41:59.921Z,-9.9
2018-03-02T00:43:00.182Z,-9.86
2018-03-02T00:44:00.462Z,-9.98
2018-03-02T00:45:00.196Z,-9.92
2018-03-02T00:46:00.463Z,-9.92
2018-03-02T00:47:00.509Z,-9.94
2018-03-02T00:48:00.481Z,-9.92
2018-03-02T00:49:00.226Z,-10.02
2018-03-02T00:50:00.511Z,-9.92
2018-03-02T00:51:00.497Z,-10
2018-03-02T00:52:15.174Z,-10.02
2018-03-02T00:53:00.528Z,-10.02
2018-03-02T00:54:15.186Z,-10.02
2018-03-02T00:55:15.194Z,-10.04
2018-03-02T00:56:00.538Z,-10.04
2018-03-02T00:57:00.543Z,-10.01
2018-03-02T00:58:00.583Z,-10.01
2018-03-02T00:59:00.564Z,-10.08
2018-03-02T01:00:00.576Z,-10.15
2018-03-02T01:01:00.573Z,-10.02
2018-03-02T01:02:00.604Z,-10.07
2018-03-02T01:03:00.589Z,-10.05
2018-03-02T01:05:00.629Z,-10.1
2018-03-02T01:06:00.352Z,-10.08
2018-03-02T01:08:00.629Z,-10.19
2018-03-02T01:09:00.638Z,-10.1
2018-03-02T01:10:00.639Z,-10.07
2018-03-02T01:11:00.648Z,-10.13
2018-03-02T01:12:00.657Z,-10.21
2018-03-02T01:13:00.672Z,-10.13
2018-03-02T01:14:00.671Z,-10.21
2018-03-02T01:15:00.426Z,-10.23
2018-03-02T01:16:00.686Z,-10.19
2018-03-02T01:17:00.693Z,-10.21
2018-03-02T01:18:00.709Z,-10.16
2018-03-02T01:19:00.709Z,-10.18
2018-03-02T01:20:00.716Z,-10.1
2018-03-02T01:21:00.726Z,-10.16
2018-03-02T01:22:00.731Z,-10.19
2018-03-02T01:23:00.738Z,-10.25
2018-03-02T01:24:15.410Z,-10.19
2018-03-02T01:25:00.496Z,-10.16
2018-03-02T01:26:00.765Z,-10.26
2018-03-02T01:27:00.768Z,-10.23
2018-03-02T01:28:00.774Z,-10.23
2018-03-02T01:29:00.787Z,-10.33
2018-03-02T01:30:00.796Z,-10.22
2018-03-02T01:31:00.799Z,-10.22
2018-03-02T01:32:00.807Z,-10.21
2018-03-02T01:33:00.559Z,-10.26
2018-03-02T01:34:00.819Z,-10.22
2018-03-02T01:35:00.829Z,-10.28
2018-03-02T01:36:00.839Z,-10.34
2018-03-02T01:37:00.842Z,-10.31
2018-03-02T01:38:00.852Z,-10.23
2018-03-02T01:39:00.963Z,-10.3
2018-03-02T01:40:15.532Z,-10.33
2018-03-02T01:41:00.876Z,-10.26
2018-03-02T01:42:00.888Z,-10.4
2018-03-02T01:43:00.888Z,-10.34
2018-03-02T01:44:00.899Z,-10.39
2018-03-02T01:45:00.907Z,-10.33
2018-03-02T01:46:00.909Z,-10.25
2018-03-02T01:47:00.913Z,-10.3
2018-03-02T01:48:00.920Z,-10.26
2018-03-02T01:49:00.927Z,-10.34
2018-03-02T01:50:00.938Z,-10.33
2018-03-02T01:51:00.945Z,-10.37
2018-03-02T01:52:15.625Z,-10.25
2018-03-02T01:53:00.705Z,-10.28
2018-03-02T01:54:00.967Z,-10.34
2018-03-02T01:55:00.975Z,-10.33
2018-03-02T01:56:15.648Z,-10.41
2018-03-02T01:57:15.657Z,-10.33
2018-03-02T01:58:00.742Z,-10.37
2018-03-02T01:59:01.013Z,-10.28
2018-03-02T02:02:01.020Z,-10.26
2018-03-02T02:03:00.775Z,-10.34
2018-03-02T02:04:01.035Z,-10.33
2018-03-02T02:05:01.043Z,-10.46
2018-03-02T02:06:00.541Z,-10.39
2018-03-02T02:07:01.059Z,-10.39
2018-03-02T02:08:00.814Z,-10.46
2018-03-02T02:09:01.077Z,-10.5
2018-03-02T02:10:01.129Z,-10.52
2018-03-02T02:11:00.577Z,-10.5
2018-03-02T02:12:15.763Z,-10.47
2018-03-02T02:13:01.103Z,-10.47
2018-03-02T02:14:15.524Z,-10.55
2018-03-02T02:15:01.119Z,-10.44
2018-03-02T02:16:15.792Z,-10.52
2018-03-02T02:17:01.140Z,-10.57
2018-03-02T02:18:01.138Z,-10.57
2018-03-02T02:19:01.152Z,-10.52
2018-03-02T02:20:01.222Z,-10.54
2018-03-02T02:21:01.161Z,-10.62
2018-03-02T02:22:01.186Z,-10.55
2018-03-02T02:23:01.179Z,-10.52
2018-03-02T02:24:00.928Z,-10.5
2018-03-02T02:25:01.193Z,-10.47
2018-03-02T02:26:01.223Z,-10.61
2018-03-02T02:27:15.874Z,-10.52
2018-03-02T02:28:01.216Z,-10.57
2018-03-02T02:29:01.219Z,-10.51
2018-03-02T02:30:01.228Z,-10.6
2018-03-02T02:31:01.241Z,-10.6
2018-03-02T02:32:00.995Z,-10.58
2018-03-02T02:33:01.249Z,-10.68
2018-03-02T02:35:01.271Z,-10.78
2018-03-02T02:36:01.290Z,-10.79
2018-03-02T02:37:01.282Z,-10.65
2018-03-02T02:38:01.299Z,-10.75
2018-03-02T02:39:01.305Z,-10.71
2018-03-02T02:40:01.299Z,-10.64
2018-03-02T02:41:01.313Z,-10.72
2018-03-02T02:42:01.064Z,-10.81
2018-03-02T02:43:01.326Z,-10.78
2018-03-02T02:44:15.746Z,-10.75
2018-03-02T02:45:01.343Z,-10.76
2018-03-02T02:46:01.349Z,-10.73
2018-03-02T02:47:01.118Z,-10.82
2018-03-02T02:49:01.378Z,-10.72
2018-03-02T02:50:01.406Z,-10.73
2018-03-02T02:52:01.391Z,-10.69
2018-03-02T02:53:01.404Z,-10.71
2018-03-02T02:54:01.411Z,-10.71
2018-03-02T02:55:01.431Z,-10.64
2018-03-02T02:56:01.427Z,-10.78
2018-03-02T02:57:01.428Z,-10.72
2018-03-02T02:59:15.853Z,-10.73
2018-03-02T03:00:01.474Z,-10.79
2018-03-02T03:01:01.456Z,-10.72
2018-03-02T03:02:16.132Z,-10.73
2018-03-02T03:03:01.478Z,-10.75
2018-03-02T03:04:01.488Z,-10.72
2018-03-02T03:05:01.499Z,-10.81
2018-03-02T03:06:01.493Z,-10.72
2018-03-02T03:08:01.251Z,-10.72
2018-03-02T03:09:01.514Z,-10.79
2018-03-02T03:10:01.266Z,-10.76
2018-03-02T03:11:01.529Z,-10.76
2018-03-02T03:12:01.277Z,-10.76
2018-03-02T03:13:01.538Z,-10.76
2018-03-02T03:14:01.297Z,-10.83
2018-03-02T03:15:16.227Z,-10.76
2018-03-02T03:16:01.617Z,-10.75
2018-03-02T03:17:01.062Z,-10.76
2018-03-02T03:18:16.308Z,-10.94
2018-03-02T03:19:01.596Z,-10.98
2018-03-02T03:20:16.258Z,-10.94
2018-03-02T03:21:01.597Z,-10.93
2018-03-02T03:22:01.607Z,-10.94
2018-03-02T03:23:01.614Z,-10.91
2018-03-02T03:24:01.618Z,-10.95
2018-03-02T03:25:01.629Z,-10.94
2018-03-02T03:26:01.380Z,-10.94
2018-03-02T03:27:01.388Z,-10.91
2018-03-02T03:28:01.658Z,-10.95
2018-03-02T03:29:01.656Z,-10.93
2018-03-02T03:30:01.413Z,-10.94
2018-03-02T03:31:16.342Z,-10.94
2018-03-02T03:32:01.677Z,-10.91
2018-03-02T03:33:16.100Z,-11
2018-03-02T03:34:01.723Z,-11
2018-03-02T03:35:16.368Z,-11
2018-03-02T03:36:01.706Z,-10.95
2018-03-02T03:37:01.715Z,-11
2018-03-02T03:38:01.722Z,-10.98
2018-03-02T03:39:01.732Z,-10.98
2018-03-02T03:40:01.836Z,-11.04
2018-03-02T03:41:01.747Z,-11
2018-03-02T03:42:01.749Z,-11.04
2018-03-02T03:43:01.758Z,-11.04
2018-03-02T03:44:01.764Z,-11.01
2018-03-02T03:45:01.772Z,-11.04
2018-03-02T03:46:01.783Z,-10.91
2018-03-02T03:47:16.456Z,-10.93
2018-03-02T03:48:01.793Z,-10.91
2018-03-02T03:49:01.813Z,-10.94
2018-03-02T03:50:16.478Z,-10.95
2018-03-02T03:51:01.816Z,-10.97
2018-03-02T03:52:01.822Z,-11.08
2018-03-02T03:53:01.838Z,-11.01
2018-03-02T03:54:01.835Z,-11.03
2018-03-02T03:56:01.863Z,-11.01
2018-03-02T03:57:01.871Z,-10.95
2018-03-02T03:58:01.869Z,-11
2018-03-02T03:59:01.876Z,-10.83
2018-03-02T04:00:01.626Z,-10.95
2018-03-02T04:01:01.890Z,-10.95
2018-03-02T04:02:16.569Z,-11.04
2018-03-02T04:03:01.948Z,-11.01
2018-03-02T04:04:01.910Z,-11
2018-03-02T04:05:01.921Z,-11.13
2018-03-02T04:06:01.928Z,-11.04
2018-03-02T04:07:01.678Z,-11.06
2018-03-02T04:08:01.937Z,-11.09
2018-03-02T04:10:01.957Z,-11.03
2018-03-02T04:11:01.972Z,-11.01
2018-03-02T04:12:01.971Z,-11.04
2018-03-02T04:13:01.973Z,-10.98
2018-03-02T04:14:01.473Z,-11.06
2018-03-02T04:15:01.995Z,-11.03
2018-03-02T04:16:01.999Z,-11.06
2018-03-02T04:17:02.002Z,-11.21
2018-03-02T04:19:16.689Z,-11.13
2018-03-02T04:20:02.036Z,-11.18
2018-03-02T04:21:02.039Z,-10.98
2018-03-02T04:22:16.707Z,-10.95
2018-03-02T04:23:02.047Z,-11.03
2018-03-02T04:24:02.058Z,-11.09
2018-03-02T04:25:01.810Z,-11.09
2018-03-02T04:26:02.069Z,-11.04
2018-03-02T04:28:02.081Z,-11.04
2018-03-02T04:29:02.099Z,-11.03
2018-03-02T04:30:02.105Z,-11.03
2018-03-02T04:31:02.122Z,-11.08
2018-03-02T04:32:02.109Z,-11.16
2018-03-02T04:33:02.118Z,-11.03
2018-03-02T04:34:16.538Z,-11.16
2018-03-02T04:36:01.885Z,-11.13
2018-03-02T04:37:01.894Z,-11.09
2018-03-02T04:38:16.822Z,-11.11
2018-03-02T04:39:16.828Z,-11.18
2018-03-02T04:40:02.168Z,-11.16
2018-03-02T04:41:02.185Z,-11.21
2018-03-02T04:42:02.185Z,-11.22
2018-03-02T04:43:02.198Z,-11.19
2018-03-02T04:44:01.941Z,-11.3
2018-03-02T04:45:01.950Z,-11.23
2018-03-02T04:46:01.957Z,-11.27
2018-03-02T04:47:02.218Z,-11.12
2018-03-02T04:48:02.228Z,-11.13
2018-03-02T04:49:02.001Z,-11.19
2018-03-02T04:50:16.907Z,-11.16
2018-03-02T04:51:02.247Z,-11.12
2018-03-02T04:52:02.253Z,-11.12
2018-03-02T04:53:02.260Z,-11.16
2018-03-02T04:54:02.275Z,-11.12
2018-03-02T04:55:16.941Z,-11.26
2018-03-02T04:56:02.286Z,-11.22
2018-03-02T04:57:02.039Z,-11.26
2018-03-02T04:59:02.304Z,-11.21
2018-03-02T05:00:02.055Z,-11.33
2018-03-02T05:01:02.319Z,-11.42
2018-03-02T05:02:01.817Z,-11.29
2018-03-02T05:03:02.340Z,-11.19
2018-03-02T05:04:02.343Z,-11.23
2018-03-02T05:05:02.376Z,-11.19
2018-03-02T05:06:17.021Z,-11.19
2018-03-02T05:07:02.372Z,-11.19
2018-03-02T05:08:02.113Z,-11.3
2018-03-02T05:09:17.043Z,-11.19
2018-03-02T05:10:17.050Z,-11.21
2018-03-02T05:11:02.397Z,-11.22
2018-03-02T05:12:02.401Z,-11.16
2018-03-02T05:13:02.151Z,-11.16
2018-03-02T05:14:02.415Z,-11.27
2018-03-02T05:15:02.163Z,-11.27
2018-03-02T05:16:02.427Z,-11.18
2018-03-02T05:17:02.431Z,-11.26
2018-03-02T05:18:02.440Z,-11.36
2018-03-02T05:19:02.445Z,-11.34
2018-03-02T05:20:02.456Z,-11.27
2018-03-02T05:21:02.210Z,-11.29
2018-03-02T05:22:16.880Z,-11.36
2018-03-02T05:23:02.218Z,-11.27
2018-03-02T05:24:02.485Z,-11.39
2018-03-02T05:25:02.530Z,-11.47
2018-03-02T05:26:02.498Z,-11.51
2018-03-02T05:27:02.252Z,-11.39
2018-03-02T05:28:02.540Z,-11.36
2018-03-02T05:30:02.271Z,-11.34
2018-03-02T05:31:02.539Z,-11.36
2018-03-02T05:32:02.542Z,-11.34
2018-03-02T05:33:02.292Z,-11.39
2018-03-02T05:34:02.559Z,-11.36
2018-03-02T05:35:02.565Z,-11.36
2018-03-02T05:36:02.312Z,-11.4
2018-03-02T05:37:16.988Z,-11.39
2018-03-02T05:38:02.326Z,-11.42
2018-03-02T05:39:02.588Z,-11.45
2018-03-02T05:41:02.604Z,-11.45
2018-03-02T05:42:02.355Z,-11.47
2018-03-02T05:43:02.719Z,-11.48
2018-03-02T05:44:02.421Z,-11.42
2018-03-02T05:45:02.378Z,-11.47
2018-03-02T05:46:02.387Z,-11.37
2018-03-02T05:47:02.388Z,-11.51
2018-03-02T05:48:02.651Z,-11.53
2018-03-02T05:49:02.658Z,-11.47
2018-03-02T05:50:02.418Z,-11.57
2018-03-02T05:51:02.416Z,-11.44
2018-03-02T05:52:02.681Z,-11.51
2018-03-02T05:53:02.432Z,-11.48
2018-03-02T05:54:02.439Z,-11.58
2018-03-02T05:55:02.700Z,-11.53
2018-03-02T05:56:17.376Z,-11.51
2018-03-02T05:57:17.382Z,-11.44
2018-03-02T05:58:17.389Z,-11.47
2018-03-02T05:59:02.734Z,-11.5
2018-03-02T06:00:02.757Z,-11.47
2018-03-02T06:01:02.492Z,-11.48
2018-03-02T06:02:02.505Z,-11.36
2018-03-02T06:03:02.503Z,-11.54
2018-03-02T06:04:02.767Z,-11.5
2018-03-02T06:05:02.516Z,-11.51
2018-03-02T06:06:02.780Z,-11.33
2018-03-02T06:07:02.531Z,-11.4
2018-03-02T06:08:02.792Z,-11.39
2018-03-02T06:09:17.470Z,-11.37
2018-03-02T06:10:02.811Z,-11.39
2018-03-02T06:11:17.484Z,-11.42
2018-03-02T06:12:17.490Z,-11.33
2018-03-02T06:13:02.831Z,-11.34
2018-03-02T06:14:02.835Z,-11.42
2018-03-02T06:15:02.843Z,-11.27
2018-03-02T06:18:02.864Z,-11.21
2018-03-02T06:19:02.871Z,-11.15
2018-03-02T06:20:02.884Z,-11.13
2018-03-02T06:21:02.635Z,-11.08
2018-03-02T06:22:02.899Z,-11.15
2018-03-02T06:23:02.899Z,-11.09
2018-03-02T06:24:02.954Z,-11.06
2018-03-02T06:25:17.584Z,-11.03
2018-03-02T06:26:02.666Z,-10.94
2018-03-02T06:27:02.935Z,-10.88
2018-03-02T06:28:17.604Z,-10.79
2018-03-02T06:29:02.435Z,-10.65
2018-03-02T06:30:02.702Z,-10.71
2018-03-02T06:31:02.959Z,-10.58
2018-03-02T06:32:02.764Z,-10.6
2018-03-02T06:33:02.728Z,-10.52
2018-03-02T06:34:02.984Z,-10.61
2018-03-02T06:35:02.994Z,-10.54
2018-03-02T06:36:03.012Z,-10.54
2018-03-02T06:37:03.088Z,-10.5
2018-03-02T06:38:02.510Z,-10.37
2018-03-02T06:39:02.519Z,-10.28
2018-03-02T06:40:02.782Z,-10.25
2018-03-02T06:41:17.716Z,-10.33
2018-03-02T06:42:03.094Z,-10.21
2018-03-02T06:43:17.482Z,-10.13
2018-03-02T06:44:03.074Z,-10.05
2018-03-02T06:45:02.829Z,-9.92
2018-03-02T06:46:03.101Z,-9.9
2018-03-02T06:47:03.103Z,-9.89
2018-03-02T06:50:02.634Z,-9.8
2018-03-02T06:51:03.145Z,-9.79
2018-03-02T06:52:03.157Z,-9.77
2018-03-02T06:53:03.166Z,-9.62
2018-03-02T06:54:03.178Z,-9.74
2018-03-02T06:55:02.936Z,-9.63
2018-03-02T06:56:02.944Z,-9.56
2018-03-02T06:57:17.885Z,-9.5
2018-03-02T06:58:03.226Z,-9.51
2018-03-02T06:59:03.234Z,-9.44
2018-03-02T07:00:03.250Z,-9.54
2018-03-02T07:01:03.263Z,-9.44
2018-03-02T07:02:03.275Z,-9.47
2018-03-02T07:03:03.024Z,-9.36
2018-03-02T07:05:03.307Z,-9.4
2018-03-02T07:06:03.321Z,-9.41
2018-03-02T07:07:03.333Z,-9.28
2018-03-02T07:08:03.342Z,-9.3
2018-03-02T07:09:03.352Z,-9.25
2018-03-02T07:10:03.366Z,-9.12
2018-03-02T07:11:18.053Z,-9.22
2018-03-02T07:12:18.064Z,-9.22
2018-03-02T07:13:03.408Z,-9.22
2018-03-02T07:14:03.160Z,-9.14
2018-03-02T07:15:17.845Z,-8.98
2018-03-02T07:16:02.931Z,-8.9
2018-03-02T07:17:03.199Z,-8.75
2018-03-02T07:18:03.467Z,-8.81
2018-03-02T07:19:03.481Z,-8.83
2018-03-02T07:20:03.496Z,-8.75
2018-03-02T07:22:03.517Z,-8.69
2018-03-02T07:23:03.530Z,-8.78
2018-03-02T07:24:03.555Z,-8.78
2018-03-02T07:25:03.557Z,-8.72
2018-03-02T07:26:03.316Z,-8.63
2018-03-02T07:27:03.591Z,-8.47
2018-03-02T07:28:03.596Z,-8.45
2018-03-02T07:29:03.610Z,-8.4
2018-03-02T07:30:03.628Z,-8.48
2018-03-02T07:31:03.383Z,-8.26
2018-03-02T07:32:03.654Z,-8.23
2018-03-02T07:33:18.331Z,-8.16
2018-03-02T07:34:03.681Z,-8.06
2018-03-02T07:35:03.701Z,-7.86
2018-03-02T07:36:03.712Z,-7.87
2018-03-02T07:37:03.718Z,-7.9
2018-03-02T07:38:03.729Z,-7.93
2018-03-02T07:39:03.744Z,-7.9
2018-03-02T07:40:03.757Z,-7.87
2018-03-02T07:41:03.769Z,-7.79
2018-03-02T07:42:18.458Z,-7.82
2018-03-02T07:43:03.544Z,-7.83
2018-03-02T07:45:03.572Z,-7.72
2018-03-02T07:46:18.251Z,-7.73
2018-03-02T07:47:18.519Z,-7.87
2018-03-02T07:48:18.531Z,-7.79
2018-03-02T07:49:03.880Z,-7.9
2018-03-02T07:50:03.380Z,-7.94
2018-03-02T07:52:03.915Z,-7.68
2018-03-02T07:53:03.674Z,-7.55
2018-03-02T07:54:03.687Z,-7.31
2018-03-02T07:55:03.953Z,-7.3
2018-03-02T07:56:03.973Z,-7.23
2018-03-02T07:57:03.798Z,-7.16
2018-03-02T07:58:03.738Z,-7.19
2018-03-02T07:59:03.497Z,-6.92
2018-03-02T08:01:04.040Z,-6.84
2018-03-02T08:02:04.048Z,-6.83
2018-03-02T08:03:18.727Z,-6.83
2018-03-02T08:04:04.085Z,-6.86
2018-03-02T08:05:18.752Z,-7.18
2018-03-02T08:06:04.100Z,-7.34
2018-03-02T08:07:03.856Z,-7.23
2018-03-02T08:08:04.132Z,-7.23
2018-03-02T08:09:04.137Z,-7.08
2018-03-02T08:10:04.154Z,-7.22
2018-03-02T08:11:04.164Z,-7.26
2018-03-02T08:12:04.176Z,-7.07
2018-03-02T08:13:04.186Z,-6.86
2018-03-02T08:14:04.202Z,-6.83
2018-03-02T08:15:04.218Z,-6.68
2018-03-02T08:16:18.937Z,-6.73
2018-03-02T08:17:04.251Z,-6.94
2018-03-02T08:18:04.250Z,-6.92
2018-03-02T08:19:04.263Z,-6.91
2018-03-02T08:21:04.031Z,-6.83
2018-03-02T08:22:04.302Z,-6.47
2018-03-02T08:23:04.311Z,-6.68
2018-03-02T08:24:04.323Z,-6.65
2018-03-02T08:25:04.345Z,-6.8
2018-03-02T08:26:04.475Z,-6.66
2018-03-02T08:27:04.104Z,-6.8
2018-03-02T08:28:04.380Z,-6.83
2018-03-02T08:29:04.390Z,-6.74
2018-03-02T08:30:04.400Z,-6.52
2018-03-02T08:31:04.153Z,-6.49
2018-03-02T08:32:19.091Z,-6.4
2018-03-02T08:33:03.924Z,-6.49
2018-03-02T08:34:04.447Z,-6.4
2018-03-02T08:35:04.205Z,-6.32
2018-03-02T08:36:04.474Z,-6.37
2018-03-02T08:37:04.281Z,-6.22
2018-03-02T08:38:04.493Z,-6.01
2018-03-02T08:39:04.509Z,-6.05
2018-03-02T08:41:04.548Z,-6.08
2018-03-02T08:42:04.542Z,-6.16
2018-03-02T08:43:04.557Z,-6.26
2018-03-02T08:44:04.568Z,-6.22
2018-03-02T08:45:04.579Z,-6.07
2018-03-02T08:46:04.593Z,-6.25
2018-03-02T08:47:19.274Z,-6.13
2018-03-02T08:48:04.616Z,-6.08
2018-03-02T08:49:04.119Z,-5.9
2018-03-02T08:50:04.386Z,-5.82
2018-03-02T08:51:04.729Z,-5.74
2018-03-02T08:52:04.416Z,-5.84
2018-03-02T08:53:04.677Z,-5.87
2018-03-02T08:54:04.693Z,-5.9
2018-03-02T08:55:04.706Z,-6.01
2018-03-02T08:56:04.712Z,-5.89
2018-03-02T08:57:04.476Z,-5.92
2018-03-02T08:58:04.489Z,-5.75
2018-03-02T08:59:04.755Z,-5.83
2018-03-02T09:00:04.509Z,-5.72
2018-03-02T09:01:04.786Z,-5.59
2018-03-02T09:02:04.788Z,-5.53
2018-03-02T09:03:04.545Z,-5.36
2018-03-02T09:04:04.817Z,-5.39
2018-03-02T09:05:04.572Z,-5.36
2018-03-02T09:06:04.837Z,-5.53
2018-03-02T09:07:04.592Z,-5.5
2018-03-02T09:08:19.530Z,-5.35
2018-03-02T09:11:04.642Z,-5.25
2018-03-02T09:12:04.655Z,-5.35
2018-03-02T09:13:04.667Z,-5.18
2018-03-02T09:14:04.678Z,-5.18
2018-03-02T09:15:04.696Z,-5.26
2018-03-02T09:16:04.706Z,-5.26
2018-03-02T09:17:04.976Z,-5.27
2018-03-02T09:18:04.980Z,-5.27
2018-03-02T09:19:19.665Z,-5.14
2018-03-02T09:20:05.011Z,-5.18
2018-03-02T09:21:05.021Z,-5.26
2018-03-02T09:22:05.037Z,-5.13
2018-03-02T09:23:19.713Z,-4.89
2018-03-02T09:24:04.802Z,-4.81
2018-03-02T09:25:04.814Z,-4.79
2018-03-02T09:26:05.084Z,-4.85
2018-03-02T09:27:05.098Z,-4.6
2018-03-02T09:28:05.117Z,-4.51
2018-03-02T09:29:05.130Z,-4.58
2018-03-02T09:30:04.958Z,-4.58
2018-03-02T09:31:04.896Z,-4.74
2018-03-02T09:32:04.904Z,-4.6
2018-03-02T09:33:05.172Z,-4.53
2018-03-02T09:34:05.189Z,-4.77
2018-03-02T09:35:19.864Z,-4.72
2018-03-02T09:36:05.215Z,-4.51
2018-03-02T09:37:05.219Z,-4.42
2018-03-02T09:38:04.977Z,-4.49
2018-03-02T09:39:04.990Z,-4.49
2018-03-02T09:41:05.014Z,-4.68
2018-03-02T09:42:05.285Z,-4.58
2018-03-02T09:44:05.307Z,-4.46
2018-03-02T09:45:05.321Z,-4.36
2018-03-02T09:46:05.079Z,-4.18
2018-03-02T09:48:05.108Z,-4.15
2018-03-02T09:49:05.370Z,-4.12
2018-03-02T09:50:05.132Z,-4.1
2018-03-02T09:51:20.065Z,-4.15
2018-03-02T09:52:05.409Z,-4.11
2018-03-02T09:53:05.170Z,-4.15
2018-03-02T09:54:05.487Z,-4.33
2018-03-02T09:55:20.116Z,-4.39
2018-03-02T09:56:05.461Z,-4.25
2018-03-02T09:57:05.217Z,-4.25
2018-03-02T09:58:05.499Z,-4.11
2018-03-02T09:59:04.989Z,-4.12
2018-03-02T10:00:05.000Z,-3.99
2018-03-02T10:01:05.347Z,-4.12
2018-03-02T10:02:05.280Z,-4.06
2018-03-02T10:03:05.293Z,-4.28
2018-03-02T10:04:05.565Z,-4.15
2018-03-02T10:05:05.319Z,-3.97
2018-03-02T10:06:05.076Z,-3.96
2018-03-02T10:07:20.268Z,-4.11
2018-03-02T10:08:05.614Z,-4.03
2018-03-02T10:09:05.627Z,-3.83
2018-03-02T10:10:20.057Z,-3.76
2018-03-02T10:11:05.395Z,-3.56
2018-03-02T10:12:05.407Z,-3.52
2018-03-02T10:13:05.674Z,-3.66
2018-03-02T10:14:05.432Z,-3.76
2018-03-02T10:15:05.444Z,-3.79
2018-03-02T10:16:05.714Z,-3.72
2018-03-02T10:17:05.733Z,-3.93
2018-03-02T10:18:05.745Z,-3.85
2018-03-02T10:19:05.754Z,-3.81
2018-03-02T10:20:05.512Z,-3.86
2018-03-02T10:21:05.786Z,-3.83
2018-03-02T10:22:20.512Z,-3.83
2018-03-02T10:23:05.805Z,-3.9
2018-03-02T10:24:05.816Z,-3.88
2018-03-02T10:25:05.575Z,-3.62
2018-03-02T10:26:05.846Z,-3.67
2018-03-02T10:27:05.860Z,-3.66
2018-03-02T10:28:05.871Z,-3.69
2018-03-02T10:29:05.888Z,-3.57
2018-03-02T10:30:05.641Z,-3.57
2018-03-02T10:31:05.650Z,-3.79
2018-03-02T10:32:05.919Z,-3.94
2018-03-02T10:33:20.608Z,-3.93
2018-03-02T10:34:05.688Z,-3.9
2018-03-02T10:35:05.700Z,-4.01
2018-03-02T10:36:05.969Z,-4.06
2018-03-02T10:37:05.981Z,-3.86
2018-03-02T10:38:06.001Z,-3.79
2018-03-02T10:39:06.009Z,-3.88
2018-03-02T10:40:05.761Z,-3.72
2018-03-02T10:41:20.697Z,-3.59
2018-03-02T10:42:20.708Z,-3.69
2018-03-02T10:43:05.795Z,-3.82
2018-03-02T10:44:06.072Z,-3.85
2018-03-02T10:45:06.077Z,-3.85
2018-03-02T10:46:06.091Z,-3.75
2018-03-02T10:47:06.125Z,-3.6
2018-03-02T10:48:05.855Z,-3.56
2018-03-02T10:49:06.130Z,-3.63
2018-03-02T10:50:05.879Z,-3.43
2018-03-02T10:51:06.148Z,-3.35
2018-03-02T10:52:06.164Z,-3.56
2018-03-02T10:53:06.169Z,-3.41
2018-03-02T10:54:20.848Z,-3.57
2018-03-02T10:55:06.195Z,-3.69
2018-03-02T10:56:06.209Z,-3.88
2018-03-02T10:57:20.884Z,-3.62
2018-03-02T10:58:05.971Z,-3.62
2018-03-02T11:00:05.746Z,-3.78
2018-03-02T11:02:06.296Z,-3.42
2018-03-02T11:03:06.293Z,-3.45
2018-03-02T11:04:06.295Z,-3.59
2018-03-02T11:05:06.050Z,-3.48
2018-03-02T11:06:06.061Z,-3.53
2018-03-02T11:07:06.332Z,-3.56
2018-03-02T11:08:06.470Z,-3.56
2018-03-02T11:09:06.393Z,-3.75
2018-03-02T11:10:21.030Z,-3.49
2018-03-02T11:11:21.056Z,-3.53
2018-03-02T11:12:21.054Z,-3.59
2018-03-02T11:13:21.063Z,-3.62
2018-03-02T11:14:06.161Z,-3.59
2018-03-02T11:18:06.450Z,-3.54
2018-03-02T11:19:06.460Z,-3.56
2018-03-02T11:20:06.471Z,-3.42
2018-03-02T11:21:06.228Z,-3.45
2018-03-02T11:22:06.494Z,-3.41
2018-03-02T11:23:06.504Z,-3.33
2018-03-02T11:24:06.260Z,-3.21
2018-03-02T11:25:06.534Z,-3.52
2018-03-02T11:26:20.954Z,-3.53
2018-03-02T11:27:06.549Z,-3.38
2018-03-02T11:28:06.666Z,-3.41
2018-03-02T11:29:06.681Z,-3.28
2018-03-02T11:30:21.251Z,-3.38
2018-03-02T11:31:06.593Z,-3.24
2018-03-02T11:32:06.094Z,-3.09
2018-03-02T11:33:06.617Z,-3.23
2018-03-02T11:34:06.370Z,-3.28
2018-03-02T11:35:06.638Z,-3.31
2018-03-02T11:36:06.649Z,-3.3
2018-03-02T11:37:06.403Z,-3.23
2018-03-02T11:38:06.670Z,-3.25
2018-03-02T11:39:06.686Z,-3.12
2018-03-02T11:40:06.692Z,-3.02
2018-03-02T11:41:06.710Z,-3.03
2018-03-02T11:42:21.128Z,-2.78
2018-03-02T11:43:06.728Z,-2.7
2018-03-02T11:44:06.743Z,-2.78
2018-03-02T11:45:06.760Z,-2.74
2018-03-02T11:46:06.762Z,-2.96
2018-03-02T11:47:06.573Z,-3.05
2018-03-02T11:48:06.792Z,-2.96
2018-03-02T11:50:06.548Z,-2.79
2018-03-02T11:51:06.558Z,-2.78
2018-03-02T11:52:06.567Z,-2.89
2018-03-02T11:53:06.846Z,-2.89
2018-03-02T11:54:06.844Z,-2.88
2018-03-02T11:55:06.865Z,-3.05
2018-03-02T11:56:06.871Z,-3.1
2018-03-02T11:57:21.293Z,-3.09
2018-03-02T11:58:06.639Z,-3.06
2018-03-02T11:59:06.901Z,-3.09
2018-03-02T12:00:06.917Z,-3.1
2018-03-02T12:01:06.413Z,-3.07
2018-03-02T12:02:06.937Z,-2.92
2018-03-02T12:03:06.943Z,-2.81
2018-03-02T12:04:06.970Z,-2.68
2018-03-02T12:05:06.967Z,-2.7
2018-03-02T12:06:06.980Z,-2.63
2018-03-02T12:07:06.989Z,-2.74
2018-03-02T12:08:07.001Z,-2.71
2018-03-02T12:09:07.014Z,-2.82
2018-03-02T12:10:06.767Z,-2.89
2018-03-02T12:11:07.034Z,-2.78
2018-03-02T12:12:07.044Z,-2.7
2018-03-02T12:13:06.799Z,-2.78
2018-03-02T12:14:07.067Z,-2.63
2018-03-02T12:15:21.746Z,-2.64
2018-03-02T12:16:06.578Z,-2.66
2018-03-02T12:17:06.848Z,-2.52
2018-03-02T12:18:21.778Z,-2.71
2018-03-02T12:21:07.148Z,-2.86
2018-03-02T12:22:07.159Z,-2.88
2018-03-02T12:23:07.167Z,-2.89
2018-03-02T12:24:07.176Z,-2.77
2018-03-02T12:25:07.188Z,-2.7
2018-03-02T12:26:07.203Z,-2.7
2018-03-02T12:27:07.213Z,-2.81
2018-03-02T12:28:07.220Z,-2.78
2018-03-02T12:29:21.899Z,-3.06
2018-03-02T12:30:07.243Z,-2.88
2018-03-02T12:31:07.321Z,-3.02
2018-03-02T12:32:07.010Z,-3.05
2018-03-02T12:33:21.945Z,-3.06
2018-03-02T12:34:07.292Z,-3
2018-03-02T12:35:07.090Z,-3.06
2018-03-02T12:36:07.054Z,-2.81
2018-03-02T12:37:07.321Z,-2.79
2018-03-02T12:39:07.348Z,-2.68
2018-03-02T12:40:07.350Z,-2.74
2018-03-02T12:41:07.363Z,-2.61
2018-03-02T12:42:07.374Z,-2.74
2018-03-02T12:43:07.384Z,-2.77
2018-03-02T12:44:07.398Z,-2.61
2018-03-02T12:45:22.078Z,-2.64
2018-03-02T12:46:07.162Z,-2.71
2018-03-02T12:47:07.427Z,-2.74
2018-03-02T12:49:07.507Z,-2.67
2018-03-02T12:50:07.205Z,-2.61
2018-03-02T12:52:07.489Z,-2.48
2018-03-02T12:54:07.507Z,-2.4
2018-03-02T12:56:07.273Z,-2.37
2018-03-02T12:57:07.539Z,-2.42
2018-03-02T12:58:07.552Z,-2.52
2018-03-02T12:59:07.560Z,-2.5
2018-03-02T13:00:07.663Z,-2.63
2018-03-02T13:01:22.251Z,-2.61
2018-03-02T13:02:07.592Z,-2.67
2018-03-02T13:03:22.017Z,-2.52
2018-03-02T13:04:07.359Z,-2.67
2018-03-02T13:06:07.636Z,-2.45
2018-03-02T13:08:07.663Z,-2.4
2018-03-02T13:09:07.414Z,-2.37
2018-03-02T13:10:07.426Z,-2.49
2018-03-02T13:11:07.692Z,-2.53
2018-03-02T13:12:07.702Z,-2.63
2018-03-02T13:13:07.712Z,-2.64
2018-03-02T13:14:07.730Z,-2.6
2018-03-02T13:15:07.743Z,-2.56
2018-03-02T13:16:07.491Z,-2.56
2018-03-02T13:17:22.427Z,-2.68
2018-03-02T13:18:07.769Z,-2.68
2018-03-02T13:19:07.779Z,-2.63
2018-03-02T13:21:07.547Z,-2.56
2018-03-02T13:22:07.811Z,-2.56
2018-03-02T13:23:07.827Z,-2.66
2018-03-02T13:24:07.587Z,-2.55
2018-03-02T13:25:07.848Z,-2.64
2018-03-02T13:26:07.602Z,-2.55
2018-03-02T13:27:07.873Z,-2.6
2018-03-02T13:28:07.879Z,-2.55
2018-03-02T13:29:07.888Z,-2.66
2018-03-02T13:30:07.652Z,-2.71
2018-03-02T13:31:07.917Z,-2.74
2018-03-02T13:32:22.593Z,-2.78
2018-03-02T13:33:07.954Z,-2.78
2018-03-02T13:34:07.946Z,-2.71
2018-03-02T13:35:07.956Z,-2.67